createdAt,value
2019-05-11T00:02:01.501Z,49.40
2019-05-11T00:04:30.555Z,49.40
2019-05-11T00:06:59.665Z,49.40
2019-05-11T00:09:28.709Z,49.40
2019-05-11T00:11:57.761Z,49.40
2019-05-11T00:14:26.774Z,49.40
2019-05-11T00:16:55.797Z,49.40
2019-05-11T00:19:24.817Z,49.40
2019-05-11T00:21:53.857Z,49.40
2019-05-11T00:24:23.014Z,49.40
2019-05-11T00:26:52.066Z,49.40
2019-05-11T00:29:21.098Z,49.30
2019-05-11T00:31:50.165Z,49.40
2019-05-11T00:34:19.200Z,49.30
2019-05-11T00:36:48.255Z,49.30
2019-05-11T00:39:17.293Z,49.30
2019-05-11T00:41:46.345Z,49.30
2019-05-11T00:44:15.386Z,49.30
2019-05-11T00:46:44.443Z,49.30
2019-05-11T00:49:13.469Z,49.30
2019-05-11T00:51:42.519Z,49.30
2019-05-11T00:54:11.554Z,49.30
2019-05-11T00:56:40.614Z,49.30
2019-05-11T00:59:21.419Z,49.30
2019-05-11T01:01:40.427Z,49.30
2019-05-11T01:04:09.458Z,49.20
2019-05-11T01:06:38.505Z,49.30
2019-05-11T01:09:07.995Z,49.20
2019-05-11T01:11:37.049Z,49.20
2019-05-11T01:14:06.169Z,49.30
2019-05-11T01:16:35.249Z,49.20
2019-05-11T01:19:04.290Z,49.60
2019-05-11T01:21:33.425Z,49.20
2019-05-11T01:24:02.476Z,49.30
2019-05-11T01:26:31.533Z,49.20
2019-05-11T01:29:00.585Z,49.20
2019-05-11T01:31:29.638Z,49.20
2019-05-11T01:33:58.686Z,49.20
2019-05-11T01:36:27.766Z,49.30
2019-05-11T01:38:56.778Z,49.20
2019-05-11T01:41:25.845Z,49.20
2019-05-11T01:43:54.885Z,49.20
2019-05-11T01:46:23.937Z,49.20
2019-05-11T01:48:52.988Z,49.20
2019-05-11T01:51:22.051Z,49.30
2019-05-11T01:53:51.105Z,49.30
2019-05-11T01:56:20.153Z,49.20
2019-05-11T01:58:49.202Z,49.20
2019-05-11T02:01:18.674Z,49.20
2019-05-11T02:03:47.749Z,49.20
2019-05-11T02:06:16.727Z,49.20
2019-05-11T02:08:45.771Z,49.30
2019-05-11T02:11:16.160Z,49.20
2019-05-11T02:13:45.511Z,49.20
2019-05-11T02:16:14.541Z,49.20
2019-05-11T02:18:43.561Z,49.20
2019-05-11T02:21:12.516Z,49.30
2019-05-11T02:23:41.551Z,49.20
2019-05-11T02:26:10.595Z,49.20
2019-05-11T02:28:39.466Z,49.20
2019-05-11T02:31:08.502Z,49.30
2019-05-11T02:33:37.450Z,49.20
2019-05-11T02:36:06.480Z,49.30
2019-05-11T02:38:35.505Z,49.30
2019-05-11T02:41:04.538Z,49.30
2019-05-11T02:43:33.581Z,49.30
2019-05-11T02:46:02.668Z,49.30
2019-05-11T02:48:31.679Z,49.20
2019-05-11T02:51:00.862Z,49.30
2019-05-11T02:53:32.535Z,49.30
2019-05-11T02:56:03.194Z,49.30
2019-05-11T02:58:32.217Z,49.30
2019-05-11T03:01:01.121Z,49.30
2019-05-11T03:03:30.147Z,49.30
2019-05-11T03:05:59.213Z,49.40
2019-05-11T03:08:28.234Z,49.40
2019-05-11T03:10:57.283Z,49.30
2019-05-11T03:13:26.221Z,49.30
2019-05-11T03:15:55.249Z,49.30
2019-05-11T03:18:24.286Z,49.30
2019-05-11T03:20:53.320Z,49.30
2019-05-11T03:23:22.262Z,49.30
2019-05-11T03:25:51.302Z,49.30
2019-05-11T03:28:20.324Z,49.30
2019-05-11T03:30:49.335Z,49.30
2019-05-11T03:33:18.403Z,49.30
2019-05-11T03:35:47.484Z,49.30
2019-05-11T03:38:16.517Z,49.30
2019-05-11T03:40:45.469Z,49.30
2019-05-11T03:43:14.513Z,49.30
2019-05-11T03:45:43.578Z,49.30
2019-05-11T03:48:12.646Z,49.40
2019-05-11T03:50:41.950Z,49.30
2019-05-11T03:53:10.993Z,49.30
2019-05-11T03:55:40.007Z,49.30
2019-05-11T03:58:08.976Z,49.30
2019-05-11T04:00:38.003Z,49.30
2019-05-11T04:03:07.051Z,49.40
2019-05-11T04:05:36.130Z,49.30
2019-05-11T04:08:05.166Z,49.30
2019-05-11T04:10:34.194Z,49.40
2019-05-11T04:13:03.242Z,49.30
2019-05-11T04:15:32.259Z,49.40
2019-05-11T04:18:01.234Z,49.40
2019-05-11T04:20:30.177Z,49.40
2019-05-11T04:22:59.201Z,49.30
2019-05-11T04:25:28.257Z,49.40
2019-05-11T04:27:57.218Z,49.40
2019-05-11T04:30:26.262Z,50.10
2019-05-11T04:32:55.323Z,49.40
2019-05-11T04:35:24.398Z,49.50
2019-05-11T04:37:53.417Z,49.50
2019-05-11T04:40:22.382Z,49.40
2019-05-11T04:42:55.706Z,49.40
2019-05-11T04:45:22.111Z,49.30
2019-05-11T04:47:51.140Z,49.40
2019-05-11T04:50:20.186Z,49.40
2019-05-11T04:52:49.194Z,49.40
2019-05-11T04:55:18.156Z,49.50
2019-05-11T04:57:47.166Z,49.50
2019-05-11T05:00:17.110Z,49.40
2019-05-11T05:02:46.192Z,49.50
2019-05-11T05:05:15.233Z,49.50
2019-05-11T05:07:48.994Z,49.60
2019-05-11T05:10:19.858Z,49.50
2019-05-11T05:12:50.764Z,49.50
2019-05-11T05:15:16.637Z,49.40
2019-05-11T05:17:45.678Z,49.50
2019-05-11T05:20:14.956Z,49.50
2019-05-11T05:22:43.998Z,49.50
2019-05-11T05:25:13.223Z,49.40
2019-05-11T05:27:42.192Z,49.40
2019-05-11T05:30:12.697Z,49.50
2019-05-11T05:32:41.733Z,49.40
2019-05-11T05:35:10.877Z,50.10
2019-05-11T05:37:39.915Z,49.40
2019-05-11T05:40:09.050Z,49.40
2019-05-11T05:42:38.099Z,49.50
2019-05-11T05:45:07.290Z,49.50
2019-05-11T05:47:36.245Z,50.00
2019-05-11T05:50:06.461Z,49.40
2019-05-11T05:52:35.410Z,49.50
2019-05-11T05:55:04.600Z,49.40
2019-05-11T05:57:33.617Z,49.50
2019-05-11T06:00:02.660Z,49.40
2019-05-11T06:02:31.609Z,49.40
2019-05-11T06:05:00.576Z,49.50
2019-05-11T06:07:29.513Z,49.50
2019-05-11T06:09:58.553Z,49.40
2019-05-11T06:12:27.573Z,49.70
2019-05-11T06:14:56.542Z,49.40
2019-05-11T06:17:25.562Z,49.40
2019-05-11T06:19:54.613Z,49.40
2019-05-11T06:22:23.499Z,49.40
2019-05-11T06:24:52.494Z,50.20
2019-05-11T06:27:21.445Z,49.40
2019-05-11T06:29:50.465Z,49.40
2019-05-11T06:32:19.439Z,49.50
2019-05-11T06:34:48.262Z,49.50
2019-05-11T06:37:17.246Z,49.50
2019-05-11T06:39:46.262Z,49.40
2019-05-11T06:42:15.369Z,49.40
2019-05-11T06:44:44.402Z,49.50
2019-05-11T06:47:13.298Z,49.50
2019-05-11T06:49:42.278Z,49.60
2019-05-11T06:52:11.236Z,49.60
2019-05-11T06:54:40.341Z,49.60
2019-05-11T06:57:09.359Z,49.60
2019-05-11T06:59:38.344Z,49.60
2019-05-11T07:02:07.389Z,49.60
2019-05-11T07:04:36.354Z,50.30
2019-05-11T07:07:05.310Z,49.60
2019-05-11T07:09:34.345Z,49.60
2019-05-11T07:12:03.310Z,49.60
2019-05-11T07:14:32.307Z,49.70
2019-05-11T07:17:01.340Z,49.60
2019-05-11T07:19:30.304Z,49.70
2019-05-11T07:21:59.249Z,49.60
2019-05-11T07:24:28.286Z,49.60
2019-05-11T07:26:57.296Z,49.60
2019-05-11T07:29:26.169Z,49.60
2019-05-11T07:31:55.662Z,49.70
2019-05-11T07:34:27.677Z,49.60
2019-05-11T07:36:57.687Z,49.60
2019-05-11T07:39:27.956Z,49.70
2019-05-11T07:41:58.485Z,49.80
2019-05-11T07:44:37.593Z,49.70
2019-05-11T07:46:58.808Z,49.70
2019-05-11T07:49:29.192Z,49.90
2019-05-11T07:51:58.821Z,49.80
2019-05-11T07:54:28.236Z,49.80
2019-05-11T07:56:58.417Z,49.80
2019-05-11T07:59:28.952Z,49.80
2019-05-11T08:01:58.484Z,49.80
2019-05-11T08:04:28.762Z,49.80
2019-05-11T08:06:58.565Z,49.70
2019-05-11T08:09:27.929Z,49.80
2019-05-11T08:11:58.440Z,49.70
2019-05-11T08:14:28.736Z,49.70
2019-05-11T08:16:59.469Z,49.70
2019-05-11T08:19:28.725Z,49.70
2019-05-11T08:21:58.415Z,49.70
2019-05-11T08:24:28.446Z,49.80
2019-05-11T08:26:58.222Z,49.80
2019-05-11T08:29:27.959Z,49.70
2019-05-11T08:31:57.905Z,49.70
2019-05-11T08:34:28.580Z,49.70
2019-05-11T08:36:58.488Z,49.70
2019-05-11T08:39:28.886Z,49.70
2019-05-11T08:41:58.958Z,49.70
2019-05-11T08:44:28.877Z,49.70
2019-05-11T08:46:58.354Z,49.70
2019-05-11T08:49:28.714Z,49.50
2019-05-11T08:51:58.181Z,49.70
2019-05-11T08:54:28.846Z,49.70
2019-05-11T08:56:58.742Z,49.70
2019-05-11T08:59:28.139Z,49.70
2019-05-11T09:01:58.732Z,49.70
2019-05-11T09:04:28.811Z,49.70
2019-05-11T09:06:58.703Z,49.70
2019-05-11T09:09:28.698Z,49.70
2019-05-11T09:11:58.811Z,50.10
2019-05-11T09:14:28.505Z,49.90
2019-05-11T09:16:57.953Z,49.80
2019-05-11T09:19:28.400Z,49.80
2019-05-11T09:21:58.810Z,49.80
2019-05-11T09:24:28.332Z,49.90
2019-05-11T09:26:58.573Z,49.90
2019-05-11T09:29:28.316Z,49.90
2019-05-11T09:31:58.327Z,49.90
2019-05-11T09:34:28.918Z,49.90
2019-05-11T09:36:58.639Z,49.90
2019-05-11T09:39:28.164Z,50.00
2019-05-11T09:41:58.437Z,50.00
2019-05-11T09:44:28.798Z,50.00
2019-05-11T09:47:01.841Z,49.90
2019-05-11T09:49:43.251Z,49.90
2019-05-11T09:51:59.403Z,49.90
2019-05-11T09:54:29.083Z,49.90
2019-05-11T09:56:58.270Z,50.50
2019-05-11T09:59:28.225Z,49.80
2019-05-11T10:01:58.943Z,50.50
2019-05-11T10:04:28.978Z,49.70
2019-05-11T10:06:58.641Z,49.80
2019-05-11T10:09:28.095Z,49.70
2019-05-11T10:11:58.450Z,49.60
2019-05-11T10:14:28.857Z,49.60
2019-05-11T10:16:58.584Z,49.60
2019-05-11T10:19:28.402Z,49.50
2019-05-11T10:21:58.180Z,49.50
2019-05-11T10:24:28.345Z,49.50
2019-05-11T10:26:57.949Z,50.10
2019-05-11T10:29:28.899Z,49.40
2019-05-11T10:31:58.715Z,49.30
2019-05-11T10:34:28.681Z,49.30
2019-05-11T10:36:58.178Z,49.30
2019-05-11T10:39:28.026Z,49.30
2019-05-11T10:41:58.347Z,49.40
2019-05-11T10:44:28.228Z,49.40
2019-05-11T10:46:58.928Z,49.40
2019-05-11T10:49:28.941Z,49.30
2019-05-11T10:51:58.813Z,49.30
2019-05-11T10:54:28.719Z,49.30
2019-05-11T10:56:58.178Z,49.30
2019-05-11T10:59:28.293Z,49.20
2019-05-11T11:01:59.691Z,49.30
2019-05-11T11:04:28.991Z,49.40
2019-05-11T11:06:59.121Z,49.20
2019-05-11T11:09:28.454Z,49.50
2019-05-11T11:11:58.039Z,49.40
2019-05-11T11:14:28.669Z,49.40
2019-05-11T11:16:58.529Z,49.40
2019-05-11T11:19:29.040Z,49.50
2019-05-11T11:22:22.225Z,49.50
2019-05-11T11:24:28.911Z,49.60
2019-05-11T11:26:57.907Z,49.50
2019-05-11T11:29:28.790Z,49.50
2019-05-11T11:31:58.759Z,49.40
2019-05-11T11:34:28.172Z,49.50
2019-05-11T11:36:58.080Z,49.40
2019-05-11T11:39:28.297Z,49.40
2019-05-11T11:41:58.560Z,49.40
2019-05-11T11:44:28.588Z,49.40
2019-05-11T11:46:59.010Z,49.50
2019-05-11T11:49:28.531Z,49.40
2019-05-11T11:51:58.063Z,49.40
2019-05-11T11:54:28.780Z,49.50
2019-05-11T11:56:58.990Z,49.50
2019-05-11T11:59:28.805Z,49.50
2019-05-11T12:01:58.299Z,49.40
2019-05-11T12:04:28.235Z,49.50
2019-05-11T12:06:58.056Z,49.50
2019-05-11T12:09:28.685Z,49.50
2019-05-11T12:11:58.326Z,49.50
2019-05-11T12:14:28.317Z,49.60
2019-05-11T12:17:07.052Z,49.50
2019-05-11T12:19:28.409Z,49.40
2019-05-11T12:21:58.025Z,49.40
2019-05-11T12:24:28.789Z,49.50
2019-05-11T12:26:58.695Z,49.40
2019-05-11T12:29:28.271Z,49.50
2019-05-11T12:31:59.248Z,49.50
2019-05-11T12:34:28.495Z,49.40
2019-05-11T12:36:58.150Z,49.50
2019-05-11T12:39:28.155Z,50.10
2019-05-11T12:41:58.268Z,49.50
2019-05-11T12:44:28.408Z,49.50
2019-05-11T12:46:58.378Z,49.60
2019-05-11T12:49:28.959Z,49.50
2019-05-11T12:51:58.407Z,49.50
2019-05-11T12:54:28.040Z,49.50
2019-05-11T12:56:58.027Z,49.50
2019-05-11T12:59:27.913Z,49.60
2019-05-11T13:01:58.997Z,49.50
2019-05-11T13:04:28.385Z,49.40
2019-05-11T13:06:58.138Z,49.60
2019-05-11T13:09:28.835Z,49.70
2019-05-11T13:11:58.746Z,49.70
2019-05-11T13:14:27.976Z,49.60
2019-05-11T13:16:58.999Z,49.60
2019-05-11T13:19:28.318Z,49.50
2019-05-11T13:21:58.946Z,49.50
2019-05-11T13:24:28.406Z,49.50
2019-05-11T13:26:59.590Z,49.60
2019-05-11T13:29:28.778Z,49.60
2019-05-11T13:31:59.133Z,49.60
2019-05-11T13:34:31.359Z,49.60
2019-05-11T13:36:59.117Z,49.70
2019-05-11T13:39:28.595Z,49.70
2019-05-11T13:41:58.053Z,49.60
2019-05-11T13:44:28.034Z,49.70
2019-05-11T13:46:58.597Z,49.70
2019-05-11T13:49:28.393Z,49.80
2019-05-11T13:51:58.556Z,49.70
2019-05-11T13:54:29.623Z,49.70
2019-05-11T13:56:58.440Z,49.70
2019-05-11T13:59:28.032Z,49.70
2019-05-11T14:01:58.257Z,49.70
2019-05-11T14:04:28.089Z,49.80
2019-05-11T14:06:58.601Z,49.70
2019-05-11T14:09:28.842Z,49.80
2019-05-11T14:11:58.467Z,49.90
2019-05-11T14:14:28.894Z,49.90
2019-05-11T14:16:59.171Z,49.90
2019-05-11T14:19:29.055Z,50.00
2019-05-11T14:21:58.539Z,50.00
2019-05-11T14:24:28.858Z,50.10
2019-05-11T14:26:58.247Z,50.20
2019-05-11T14:29:28.363Z,50.20
2019-05-11T14:31:58.157Z,50.30
2019-05-11T14:34:28.308Z,50.30
2019-05-11T14:36:58.235Z,50.30
2019-05-11T14:39:28.050Z,50.30
2019-05-11T14:41:58.724Z,50.30
2019-05-11T14:44:28.527Z,50.40
2019-05-11T14:46:59.326Z,50.40
2019-05-11T14:49:28.331Z,50.30
2019-05-11T14:51:58.534Z,50.40
2019-05-11T14:54:28.850Z,50.40
2019-05-11T14:56:58.543Z,50.40
2019-05-11T14:59:28.599Z,50.30
2019-05-11T15:01:58.286Z,50.30
2019-05-11T15:04:28.741Z,50.30
2019-05-11T15:06:58.041Z,50.30
2019-05-11T15:09:28.576Z,50.30
2019-05-11T15:11:58.094Z,50.40
2019-05-11T15:14:28.872Z,50.30
2019-05-11T15:16:57.927Z,50.30
2019-05-11T15:19:27.886Z,50.30
2019-05-11T15:21:58.197Z,50.30
2019-05-11T15:24:28.774Z,50.40
2019-05-11T15:26:58.062Z,50.30
2019-05-11T15:29:28.763Z,50.40
2019-05-11T15:31:58.054Z,50.30
2019-05-11T15:34:28.936Z,50.30
2019-05-11T15:36:58.328Z,50.20
2019-05-11T15:39:28.784Z,50.30
2019-05-11T15:42:09.258Z,50.30
2019-05-11T15:44:28.829Z,50.40
2019-05-11T15:46:58.265Z,50.30
2019-05-11T15:49:28.393Z,50.30
2019-05-11T15:51:57.971Z,49.70
2019-05-11T15:54:28.788Z,50.30
2019-05-11T15:56:59.979Z,50.40
2019-05-11T15:59:30.543Z,50.50
2019-05-11T16:01:59.421Z,50.40
2019-05-11T16:04:28.379Z,50.40
2019-05-11T16:06:57.483Z,50.50
2019-05-11T16:09:29.047Z,50.50
2019-05-11T16:11:58.262Z,50.40
2019-05-11T16:14:28.222Z,50.40
2019-05-11T16:16:58.463Z,50.50
2019-05-11T16:19:28.154Z,50.40
2019-05-11T16:21:57.456Z,50.50
2019-05-11T16:24:26.402Z,50.50
2019-05-11T16:26:55.433Z,50.50
2019-05-11T16:29:24.499Z,50.50
2019-05-11T16:31:53.531Z,50.70
2019-05-11T16:34:22.505Z,50.80
2019-05-11T16:36:51.534Z,51.00
2019-05-11T16:39:20.497Z,51.40
2019-05-11T16:41:49.524Z,51.10
2019-05-11T16:44:18.668Z,51.50
2019-05-11T16:46:50.825Z,51.50
2019-05-11T16:49:28.723Z,51.20
2019-05-11T16:51:49.200Z,51.20
2019-05-11T16:54:18.173Z,51.00
2019-05-11T16:56:48.653Z,50.90
2019-05-11T16:59:18.206Z,51.00
2019-05-11T17:01:48.281Z,51.20
2019-05-11T17:04:17.328Z,51.10
2019-05-11T17:06:48.527Z,51.10
2019-05-11T17:09:18.026Z,51.00
2019-05-11T17:11:48.993Z,51.00
2019-05-11T17:14:18.747Z,50.90
2019-05-11T17:16:48.318Z,51.00
2019-05-11T17:19:18.474Z,51.00
2019-05-11T17:21:47.587Z,50.90
2019-05-11T17:24:16.629Z,50.90
2019-05-11T17:26:47.720Z,50.80
2019-05-11T17:29:18.426Z,51.00
2019-05-11T17:31:48.446Z,51.00
2019-05-11T17:34:20.575Z,51.20
2019-05-11T17:36:48.537Z,51.40
2019-05-11T17:39:18.821Z,51.30
2019-05-11T17:41:48.068Z,51.40
2019-05-11T17:44:18.473Z,51.30
2019-05-11T17:46:47.630Z,51.30
2019-05-11T17:49:18.451Z,51.40
2019-05-11T17:51:48.412Z,51.30
2019-05-11T17:54:18.009Z,51.30
2019-05-11T17:56:48.322Z,51.20
2019-05-11T17:59:19.529Z,51.20
2019-05-11T18:01:48.405Z,51.20
2019-05-11T18:04:18.422Z,51.10
2019-05-11T18:06:47.683Z,51.10
2019-05-11T18:09:18.764Z,51.10
2019-05-11T18:11:48.264Z,51.10
2019-05-11T18:14:17.417Z,51.10
2019-05-11T18:16:48.070Z,51.00
2019-05-11T18:19:19.034Z,51.30
2019-05-11T18:21:48.732Z,51.00
2019-05-11T18:24:18.027Z,50.90
2019-05-11T18:26:48.794Z,51.40
2019-05-11T18:29:18.300Z,50.90
2019-05-11T18:31:48.614Z,50.90
2019-05-11T18:34:17.896Z,50.90
2019-05-11T18:36:48.589Z,50.80
2019-05-11T18:39:18.637Z,50.80
2019-05-11T18:41:48.380Z,50.80
2019-05-11T18:44:18.759Z,50.80
2019-05-11T18:46:48.089Z,51.50
2019-05-11T18:49:17.924Z,50.80
2019-05-11T18:51:48.376Z,50.70
2019-05-11T18:54:19.165Z,50.80
2019-05-11T18:56:48.878Z,50.80
2019-05-11T18:59:19.502Z,50.70
2019-05-11T19:01:48.695Z,50.70
2019-05-11T19:04:18.407Z,50.80
2019-05-11T19:06:48.438Z,50.60
2019-05-11T19:09:17.988Z,50.70
2019-05-11T19:11:48.866Z,50.60
2019-05-11T19:14:18.035Z,50.60
2019-05-11T19:16:49.036Z,50.60
2019-05-11T19:19:18.290Z,50.60
2019-05-11T19:21:48.206Z,50.50
2019-05-11T19:24:19.038Z,50.60
2019-05-11T19:26:48.181Z,50.60
2019-05-11T19:29:18.778Z,50.60
2019-05-11T19:31:47.834Z,50.60
2019-05-11T19:34:17.705Z,50.50
2019-05-11T19:36:48.502Z,50.60
2019-05-11T19:39:19.395Z,50.70
2019-05-11T19:41:48.409Z,51.60
2019-05-11T19:44:18.730Z,51.30
2019-05-11T19:46:48.610Z,51.10
2019-05-11T19:49:19.039Z,51.10
2019-05-11T19:51:48.958Z,51.00
2019-05-11T19:54:18.855Z,51.00
2019-05-11T19:56:52.177Z,50.90
2019-05-11T19:59:20.349Z,50.90
2019-05-11T20:01:50.441Z,50.80
2019-05-11T20:04:20.252Z,50.90
2019-05-11T20:06:50.000Z,51.40
2019-05-11T20:09:20.050Z,51.20
2019-05-11T20:11:49.702Z,51.10
2019-05-11T20:14:19.596Z,51.10
2019-05-11T20:16:49.119Z,50.90
2019-05-11T20:19:18.895Z,50.90
2019-05-11T20:21:48.633Z,50.90
2019-05-11T20:24:18.673Z,50.90
2019-05-11T20:26:48.526Z,50.90
2019-05-11T20:29:18.118Z,50.90
2019-05-11T20:31:47.800Z,50.90
2019-05-11T20:34:17.974Z,50.90
2019-05-11T20:36:48.103Z,50.80
2019-05-11T20:39:17.889Z,50.80
2019-05-11T20:41:47.728Z,50.80
2019-05-11T20:44:17.946Z,50.80
2019-05-11T20:46:48.609Z,50.80
2019-05-11T20:49:17.744Z,50.80
2019-05-11T20:51:48.509Z,50.80
2019-05-11T20:54:17.734Z,50.80
2019-05-11T20:56:47.833Z,50.70
2019-05-11T20:59:18.286Z,50.80
2019-05-11T21:01:48.569Z,50.80
2019-05-11T21:04:18.866Z,50.70
2019-05-11T21:06:48.549Z,50.80
2019-05-11T21:09:18.476Z,50.90
2019-05-11T21:11:48.002Z,50.80
2019-05-11T21:14:18.197Z,50.80
2019-05-11T21:16:47.875Z,50.80
2019-05-11T21:19:18.798Z,50.90
2019-05-11T21:21:53.515Z,50.90
2019-05-11T21:24:18.816Z,50.90
2019-05-11T21:26:48.046Z,51.00
2019-05-11T21:29:18.693Z,51.10
2019-05-11T21:31:48.564Z,51.10
2019-05-11T21:34:18.806Z,51.20
2019-05-11T21:36:48.440Z,51.20
2019-05-11T21:39:17.586Z,51.00
2019-05-11T21:41:47.785Z,51.10
2019-05-11T21:44:18.877Z,51.10
2019-05-11T21:46:48.783Z,51.00
2019-05-11T21:49:18.635Z,51.00
2019-05-11T21:52:03.340Z,51.00
2019-05-11T21:54:19.935Z,51.00
2019-05-11T21:56:51.138Z,51.00
2019-05-11T21:59:20.916Z,50.90
2019-05-11T22:01:50.761Z,50.90
2019-05-11T22:04:20.566Z,50.90
2019-05-11T22:06:50.311Z,50.90
2019-05-11T22:09:19.978Z,51.00
2019-05-11T22:11:49.761Z,50.90
2019-05-11T22:14:19.489Z,50.90
2019-05-11T22:16:49.183Z,50.90
2019-05-11T22:19:18.912Z,50.90
2019-05-11T22:21:49.647Z,50.90
2019-05-11T22:24:19.616Z,50.90
2019-05-11T22:26:49.342Z,50.90
2019-05-11T22:29:20.504Z,50.90
2019-05-11T22:31:50.116Z,50.90
2019-05-11T22:34:20.865Z,50.90
2019-05-11T22:36:51.550Z,50.90
2019-05-11T22:39:21.683Z,50.90
2019-05-11T22:41:51.960Z,50.90
2019-05-11T22:44:21.412Z,50.80
2019-05-11T22:46:51.015Z,50.80
2019-05-11T22:49:20.663Z,50.80
2019-05-11T22:51:50.045Z,50.70
2019-05-11T22:54:19.058Z,50.80
2019-05-11T22:56:48.231Z,50.80
2019-05-11T22:59:18.509Z,50.80
2019-05-11T23:01:48.338Z,50.80
2019-05-11T23:04:19.635Z,50.80
2019-05-11T23:06:48.410Z,50.80
2019-05-11T23:09:18.451Z,50.80
2019-05-11T23:11:48.235Z,50.80
2019-05-11T23:14:19.935Z,50.70
2019-05-11T23:16:49.915Z,51.00
2019-05-11T23:19:19.197Z,50.90
2019-05-11T23:21:48.244Z,51.00
2019-05-11T23:24:18.049Z,50.90
2019-05-11T23:26:48.042Z,50.90
2019-05-11T23:29:17.265Z,50.80
2019-05-11T23:31:47.783Z,50.90
2019-05-11T23:34:17.686Z,50.80
2019-05-11T23:36:48.703Z,50.80
2019-05-11T23:39:17.832Z,50.80
2019-05-11T23:41:48.268Z,50.80
2019-05-11T23:44:17.946Z,51.50
2019-05-11T23:46:47.867Z,50.90
2019-05-11T23:49:22.757Z,50.80
2019-05-11T23:51:51.730Z,50.80
2019-05-11T23:54:20.758Z,50.80
2019-05-11T23:56:49.738Z,50.80
2019-05-11T23:59:18.940Z,50.80
